Meteorología y climatología de Navarra
Datos de la estación - Meteo Navarra

Estación de Tafalla GN

Altitud 430 m.


Datos desde el 12/09/2019 hasta el 13/09/2019 en horario solar
Los datos son PROVISIONALES

Anterior Página 1 de 1 Siguiente Descargar: Formato para Excel 2000 o superior   Formato csv   Formato para OpenOffice Calc
Fecha Temperatura Humedad relativa Radiación global Insolación Precipitación Vel. viento 10 m Vel. viento 10 m Dir. viento 10 m
ºC % W/m² s l/m² m/s km/h º
12/09/2019 0:00 14.4 69 0.0 0 0.0 4.3 15.5 344
12/09/2019 0:10 14.4 69 0.0 0 0.0 4.7 16.9 340
12/09/2019 0:20 14.2 69 0.0 0 0.0 4.1 14.9 349
12/09/2019 0:30 14.3 69 0.0 0 0.0 5.1 18.2 353
12/09/2019 0:40 14.2 69 0.0 0 0.0 3.4 12.1 354
12/09/2019 0:50 14.1 68 0.0 0 0.0 4.2 15.0 331
12/09/2019 1:00 14.1 69 0.0 0 0.0 4.2 14.9 329
12/09/2019 1:10 14.1 69 0.0 0 0.0 5.0 18.0 327
12/09/2019 1:20 14.0 69 0.0 0 0.0 4.7 16.9 322
12/09/2019 1:30 13.9 69 0.0 0 0.0 4.6 16.5 323
12/09/2019 1:40 13.9 69 0.0 0 0.0 4.5 16.3 327
12/09/2019 1:50 13.9 69 0.0 0 0.0 4.6 16.7 322
12/09/2019 2:00 13.9 69 0.0 0 0.0 4.2 15.1 313
12/09/2019 2:10 13.8 69 0.0 0 0.0 3.8 13.8 315
12/09/2019 2:20 13.8 69 0.0 0 0.0 3.8 13.6 301
12/09/2019 2:30 13.4 70 0.0 0 0.0 3.4 12.1 299
12/09/2019 2:40 12.9 72 0.0 0 0.0 3.4 12.2 304
12/09/2019 2:50 13.3 71 0.0 0 0.0 3.7 13.2 314
12/09/2019 3:00 13.3 70 0.0 0 0.0 3.3 11.9 303
12/09/2019 3:10 12.8 72 0.0 0 0.0 3.4 12.1 291
12/09/2019 3:20 12.5 73 0.0 0 0.0 3.7 13.4 291
12/09/2019 3:30 12.5 73 0.0 0 0.0 3.5 12.7 304
12/09/2019 3:40 12.7 72 0.0 0 0.0 3.0 10.7 292
12/09/2019 3:50 12.1 75 0.0 0 0.0 3.4 12.2 293
12/09/2019 4:00 11.6 77 0.0 0 0.0 3.5 12.5 286
12/09/2019 4:10 11.6 77 0.0 0 0.0 3.6 12.8 289
12/09/2019 4:20 11.5 77 0.0 0 0.0 3.5 12.7 295
12/09/2019 4:30 11.2 78 0.0 0 0.0 3.3 11.8 294
12/09/2019 4:40 11.3 78 0.0 0 0.0 3.0 10.7 291
12/09/2019 4:50 11.1 79 0.0 0 0.0 3.2 11.3 302
12/09/2019 5:00 10.9 79 0.0 0 0.0 3.3 11.7 300
12/09/2019 5:10 11.0 80 0.0 0 0.0 3.7 13.4 292
12/09/2019 5:20 11.1 79 0.0 0 0.0 3.2 11.4 299
12/09/2019 5:30 11.6 77 0.0 0 0.0 3.2 11.6 321
12/09/2019 5:40 12.4 73 0.0 0 0.0 2.8 10.2 320
12/09/2019 5:50 11.6 76 0.0 0 0.0 1.7 6.0 9
12/09/2019 6:00 11.4 76 6.7 0 0.0 1.1 3.9 351
12/09/2019 6:10 11.7 75 34.5 438 0.0 2.5 9.1 306
12/09/2019 6:20 12.0 76 58.2 600 0.0 3.1 11.1 287
12/09/2019 6:30 12.2 75 84.6 600 0.0 2.9 10.5 290
12/09/2019 6:40 12.4 74 113.2 600 0.0 2.8 10.0 287
12/09/2019 6:50 12.3 75 143.5 600 0.0 2.8 10.0 285
12/09/2019 7:00 12.6 74 175.0 600 0.0 3.0 10.7 281
12/09/2019 7:10 13.3 73 207.5 600 0.0 2.7 9.7 282
12/09/2019 7:20 14.3 70 240.8 600 0.0 3.3 11.8 299
12/09/2019 7:30 15.4 65 274.1 600 0.0 3.8 13.5 326
12/09/2019 7:40 15.9 64 306.4 600 0.0 3.5 12.7 330
12/09/2019 7:50 16.2 62 337.1 600 0.0 3.0 10.9 339
12/09/2019 8:00 16.7 61 367.5 600 0.0 2.4 8.6 330
12/09/2019 8:10 17.1 60 397.7 600 0.0 2.5 8.9 320
12/09/2019 8:20 17.3 59 429.3 600 0.0 3.2 11.6 287
12/09/2019 8:30 17.7 58 460.8 600 0.0 3.3 11.9 288
12/09/2019 8:40 18.0 57 480.9 600 0.0 2.9 10.4 284
12/09/2019 8:50 18.1 57 489.3 600 0.0 3.6 13.1 273
12/09/2019 9:00 18.2 57 540.2 600 0.0 3.2 11.7 274
12/09/2019 9:10 18.6 55 571.5 600 0.0 3.7 13.2 275
12/09/2019 9:20 18.7 55 600.6 600 0.0 3.1 11.1 282
12/09/2019 9:30 19.2 54 625.5 600 0.0 2.5 9.1 272
12/09/2019 9:40 19.8 51 648.0 600 0.0 2.7 9.8 266
12/09/2019 9:50 20.3 50 669.4 600 0.0 2.1 7.7 268
12/09/2019 10:00 20.6 49 688.8 600 0.0 2.3 8.3 276
12/09/2019 10:10 21.3 47 707.9 600 0.0 3.2 11.3 251
12/09/2019 10:20 21.2 47 725.7 600 0.0 3.1 11.1 261
12/09/2019 10:30 21.9 45 740.6 600 0.0 2.4 8.5 268
12/09/2019 10:40 22.1 46 754.1 600 0.0 2.5 8.9 252
12/09/2019 10:50 22.8 44 763.3 600 0.0 2.2 7.8 240
12/09/2019 11:00 23.0 43 781.0 600 0.0 2.0 7.3 234
12/09/2019 11:10 23.2 43 790.8 600 0.0 2.7 9.6 257
12/09/2019 11:20 23.3 42 801.0 600 0.0 2.9 10.3 278
12/09/2019 11:30 23.6 41 807.0 600 0.0 1.9 6.9 250
12/09/2019 11:40 24.1 41 814.0 600 0.0 2.1 7.6 269
12/09/2019 11:50 25.0 38 814.0 600 0.0 2.4 8.7 251
12/09/2019 12:00 26.0 37 820.0 600 0.0 3.3 11.7 240
12/09/2019 12:10 25.9 36 822.0 600 0.0 2.8 10.1 269
12/09/2019 12:20 25.0 38 816.0 600 0.0 1.4 4.9 320
12/09/2019 12:30 25.9 36 816.0 600 0.0 2.2 7.7 258
12/09/2019 12:40 26.4 34 815.0 600 0.0 3.0 10.7 264
12/09/2019 12:50 26.3 35 808.0 600 0.0 2.6 9.2 257
12/09/2019 13:00 26.2 34 801.0 600 0.0 1.9 6.7 303
12/09/2019 13:10 25.7 34 788.1 600 0.0 1.8 6.4 73
12/09/2019 13:20 26.0 35 775.5 600 0.0 1.8 6.4 77
12/09/2019 13:30 27.0 33 762.1 600 0.0 1.6 5.9 199
12/09/2019 13:40 27.3 32 748.6 600 0.0 2.2 7.9 238
12/09/2019 13:50 27.9 31 730.9 600 0.0 2.5 9.1 244
12/09/2019 14:00 28.7 30 717.1 600 0.0 3.4 12.1 229
12/09/2019 14:10 28.3 30 694.7 600 0.0 2.2 8.1 227
12/09/2019 14:20 28.2 30 674.2 600 0.0 2.7 9.6 249
12/09/2019 14:30 27.7 31 654.0 600 0.0 2.6 9.3 215
12/09/2019 14:40 27.9 31 631.3 600 0.0 3.3 11.9 265
12/09/2019 14:50 28.5 30 604.9 600 0.0 3.1 11.1 252
12/09/2019 15:00 28.6 30 579.4 600 0.0 3.7 13.3 236
12/09/2019 15:10 28.9 29 553.2 600 0.0 3.1 11.2 227
12/09/2019 15:20 28.8 29 527.1 600 0.0 2.7 9.5 216
12/09/2019 15:30 28.7 29 499.7 600 0.0 2.5 9.0 222
12/09/2019 15:40 28.5 29 470.4 600 0.0 2.3 8.2 210
12/09/2019 15:50 28.7 29 440.9 600 0.0 2.7 9.8 246
12/09/2019 16:00 28.4 30 411.0 600 0.0 3.6 13.1 264
12/09/2019 16:10 28.2 31 381.1 600 0.0 3.7 13.4 306
12/09/2019 16:20 27.6 35 346.0 600 0.0 2.9 10.6 6
12/09/2019 16:30 27.4 35 313.0 600 0.0 3.7 13.4 6
12/09/2019 16:40 27.0 36 282.3 600 0.0 4.2 15.0 11
12/09/2019 16:50 26.8 37 249.7 600 0.0 4.0 14.3 7
12/09/2019 17:00 26.5 39 216.8 600 0.0 4.5 16.2 15
12/09/2019 17:10 26.1 40 184.6 600 0.0 4.7 16.8 13
12/09/2019 17:20 25.6 41 154.6 600 0.0 4.9 17.7 14
12/09/2019 17:30 25.3 42 125.2 600 0.0 5.0 17.9 10
12/09/2019 17:40 25.0 42 97.7 600 0.0 5.6 20.3 5
12/09/2019 17:50 24.6 43 71.4 600 0.0 4.5 16.1 7
12/09/2019 18:00 24.2 45 47.6 600 0.0 5.5 19.8 12
12/09/2019 18:10 23.5 47 18.0 68 0.0 5.1 18.4 17
12/09/2019 18:20 23.1 49 0.1 0 0.0 5.3 19.2 15
12/09/2019 18:30 22.8 50 0.0 0 0.0 5.7 20.5 14
12/09/2019 18:40 22.2 52 0.0 0 0.0 5.4 19.5 9
12/09/2019 18:50 21.9 54 0.0 0 0.0 5.7 20.4 4
12/09/2019 19:00 21.5 55 0.0 0 0.0 5.4 19.6 4
12/09/2019 19:10 21.2 56 0.0 0 0.0 4.8 17.1 4
12/09/2019 19:20 21.0 56 0.0 0 0.0 4.3 15.6 2
12/09/2019 19:30 20.6 58 0.0 0 0.0 4.0 14.5 2
12/09/2019 19:40 20.5 58 0.0 0 0.0 4.3 15.3 1
12/09/2019 19:50 20.6 57 0.0 0 0.0 4.1 14.7 0
12/09/2019 20:00 20.5 56 0.0 0 0.0 4.4 15.9 358
12/09/2019 20:10 20.5 56 0.0 0 0.0 4.4 15.9 359
12/09/2019 20:20 20.5 56 0.0 0 0.0 4.4 15.8 4
12/09/2019 20:30 20.3 57 0.0 0 0.0 4.3 15.4 5
12/09/2019 20:40 20.0 57 0.0 0 0.0 4.6 16.7 3
12/09/2019 20:50 19.9 58 0.0 0 0.0 4.0 14.5 356
12/09/2019 21:00 19.8 58 0.0 0 0.0 3.4 12.2 346
12/09/2019 21:10 19.9 57 0.0 0 0.0 3.7 13.2 354
12/09/2019 21:20 19.7 58 0.0 0 0.0 3.3 11.8 328
12/09/2019 21:30 19.6 58 0.0 0 0.0 3.3 12.0 314
12/09/2019 21:40 19.5 59 0.0 0 0.0 3.3 12.0 316
12/09/2019 21:50 19.4 59 0.0 0 0.0 2.9 10.4 308
12/09/2019 22:00 19.0 60 0.0 0 0.0 2.6 9.5 318
12/09/2019 22:10 18.7 61 0.0 0 0.0 3.1 11.3 328
12/09/2019 22:20 18.7 62 0.0 0 0.0 2.4 8.5 339
12/09/2019 22:30 18.5 62 0.0 0 0.0 2.7 9.6 337
12/09/2019 22:40 18.5 63 0.0 0 0.0 3.2 11.6 336
12/09/2019 22:50 18.0 64 0.0 0 0.0 2.1 7.5 320
12/09/2019 23:00 17.7 65 0.0 0 0.0 1.8 6.3 326
12/09/2019 23:10 18.0 64 0.0 0 0.0 1.7 6.2 358
12/09/2019 23:20 17.9 64 0.0 0 0.0 1.4 5.0 16
12/09/2019 23:30 17.7 64 0.0 0 0.0 0.6 2.1 283
12/09/2019 23:40 17.4 65 0.0 0 0.0 0.9 3.3 18
12/09/2019 23:50 17.2 66 0.0 0 0.0 1.4 5.1 332
Anterior Página 1 de 1 Siguiente

NOTA: Tipo de datos según el color:
   - Valores diarios o 10 minutos correctos
   - Valores diarios calculados a partir de un número de datos 10 minutos menor que 144 y mayor que 120, o de un número de datos semihorarios menor que 48 y mayor que 40 (caso de las estaciones de Riegos de Navarra y del MARM)
   - Valores diez minutos estimados


Contacto        Enlaces        Aviso legal